Create Custom Reports and Graphics: Custom Report

Soquel - CalFire

Current Conditions

5/14/21 11:30 AM (-07:00)
Updated Every 15 Minutes
Temp 59.7 °F   4.2
RH 66 %   4
Dew Pt 48.5 °F   2.2
Wind Spd 2.4 mph
Wind Dir WSW | 246 °
Wind Gust 5.0 mph   0.3
Latest Rain 0.00 In
Daily Rain 0.00 In
Leaf Wet 0.0 mins
Daily Min Temp 42.4 °F   1.0
Daily Max Temp 60.8 °F   4.1

Daily Summary

Last 30 Days

Daily Data | America/Los_Angeles
as of 5/14/21 11:38 AM PDT
Date Daily Max Temp (°F) Daily Min Temp (°F) Daily Rain (In) Seasonal Rainfall (In) Daily Solar Rad (Cal/cm2) Daily ETo (in) Wind Spd (mph) Daily Max Wind (mph) Max Wind Dir (°) Dew Pt (°F) Max RH (%) Min RH (%) Daily Leaf Wet Hrs (hrs) Soil Temp (°F) Soil Moist (%) Fuel Moisture (%) Max Fuel Moisture (%) Min Fuel Moisture (%) Bat Volt Min Day (V)
5/13/21 71.0 41.4 0.00 24.97 701 0.193 0.9 6.9 SW | 235 46.0 95 47 13.7 62.0 12.6 12 22 0 12.5
5/12/21 77.0 45.1 0.00 24.97 686 0.194 0.9 7.1 NNW | 335 46.3 94 40 4.8 61.7 12.7 9 17 0 12.5
5/11/21 76.0 51.3 0.00 24.97 685 0.199 0.9 7.1 WSW | 244 43.9 85 33 0.8 61.3 12.6 8 13 0 12.5
5/10/21 76.6 49.0 0.00 24.97 681 0.198 1.7 12.9 NE | 35 44.5 84 27 0.8 61.0 12.6 7 14 0 12.5
5/9/21 82.6 49.9 0.00 24.97 673 0.197 1.2 11.4 S | 180 39.4 82 14 0.1 60.7 12.6 6 12 0 12.5
5/8/21 83.8 46.3 0.00 24.97 690 0.198 2.3 18.7 NNE | 30 28.7 82 9 0.0 60.5 12.5 7 17 0 12.5
5/7/21 73.2 41.2 0.00 24.97 679 0.186 1.0 8.1 WSW | 248 44.6 93 38 8.7 60.2 12.5 11 20 0 12.5
5/6/21 78.1 44.0 0.01 24.97 668 0.192 0.9 8.6 SSW | 205 43.7 91 31 5.6 59.9 12.6 10 18 0 12.5
5/5/21 84.1 45.9 0.00 24.96 667 0.202 0.8 8.7 WSW | 249 46.0 88 23 1.3 59.6 12.8 8 15 0 12.5
5/4/21 86.2 60.4 0.00 24.96 659 0.201 1.2 7.7 WNW | 284 45.1 61 19 0.0 59.3 12.9 7 13 0 12.5
5/3/21 84.0 46.4 0.00 24.96 675 0.197 1.4 13.8 NW | 317 36.8 85 11 1.6 59.1 12.9 9 20 0 12.5
5/2/21 77.7 42.8 0.00 24.96 670 0.189 1.1 13.6 WSW | 246 41.8 92 20 8.7 58.9 13.0 11 22 0 12.5
5/1/21 74.7 43.4 0.00 24.96 676 0.189 1.4 13.4 SSW | 195 45.2 95 26 12.0 58.7 13.2 11 21 0 12.5
4/30/21 79.2 47.1 0.00 24.96 641 0.187 0.8 6.8 SW | 218 46.2 92 32 3.6 58.5 13.4 9 17 0 12.5
4/29/21 84.0 53.4 0.00 24.96 658 0.196 1.1 7.2 WSW | 255 40.8 62 17 0.0 58.4 13.5 8 14 0 12.5
4/28/21 81.2 50.2 0.00 24.96 671 0.195 1.3 10.1 SSW | 203 36.7 65 15 0.0 58.4 13.6 9 18 0 12.5
4/27/21 71.1 37.8 0.00 24.96 666 0.178 1.4 12.0 SSW | 213 36.2 92 26 8.1 58.5 13.7 18 33 0 12.5
4/26/21 62.0 36.5 0.00 24.96 439 0.106 1.2 8.8 WSW | 239 39.4 96 48 9.7 58.4 13.8 38 57 14 12.4
4/25/21 52.5 39.3 0.17 24.96 258 0.062 1.0 11.8 SSW | 209 43.2 95 60 17.2 58.3 13.7 35 54 19 12.5
4/24/21 63.4 42.5 0.00 24.79 573 0.143 1.1 9.8 WNW | 302 43.1 92 46 4.0 58.2 13.7 15 21 3 12.5
4/23/21 61.4 42.5 0.00 24.79 442 0.108 1.1 8.2 W | 261 43.4 94 55 3.7 58.1 13.8 17 22 5 12.5
4/22/21 58.7 43.0 0.00 24.79 336 0.082 1.1 9.3 NW | 309 43.5 93 64 4.2 57.9 13.9 17 20 8 12.5
4/21/21 62.2 44.2 0.00 24.79 580 0.146 1.1 8.2 WNW | 283 44.2 92 57 0.1 57.7 14.0 13 19 1 12.5
4/20/21 66.5 40.5 0.00 24.79 638 0.161 1.3 11.8 SSW | 199 42.7 94 46 9.5 57.5 14.1 14 23 2 12.5
4/19/21 72.5 44.2 0.00 24.79 638 0.173 0.7 7.5 WSW | 243 41.8 92 22 4.5 57.4 14.3 9 18 0 12.5
4/18/21 82.4 51.9 0.00 24.79 642 0.187 1.4 8.6 WSW | 251 33.2 57 11 0.0 57.2 14.6 8 15 0 12.5
4/17/21 76.0 38.6 0.00 24.79 632 0.171 1.1 9.1 ENE | 72 40.4 94 20 9.0 57.1 14.8 12 22 0 12.5
4/16/21 72.2 39.9 0.00 24.79 613 0.166 1.0 7.0 SSW | 195 37.7 93 28 2.3 57.0 15.0 11 18 0 12.5
4/15/21 68.4 39.6 0.00 24.79 614 0.159 1.4 11.9 WSW | 253 34.9 87 15 0.9 56.9 15.3 14 23 0 12.5
4/14/21 62.4 41.3 0.00 24.79 614 0.153 1.1 9.2 WNW | 297 41.3 87 50 3.9 56.7 15.7 15 22 3 12.5
Max 86.2 60.4 0.17 - 701 0.202 2.3 18.7 - 46.3 96 64 17.2 62.0 15.7 38 57 19 12.5
Avg - - - - - - 1.2 - - 41.4 - - - 58.8 13.5 13 21 2 -
Min 52.5 36.5 0.00 - 258 0.062 0.7 6.8 - 28.7 57 9 0.0 56.7 12.5 6 12 0 12.4